Terminal Aerodrome Forecast
Issued by NWS Louisville, KY

Home | Current Version | Previous Version | Text Only | Print | Product List | Glossary On
Versions: 1 2 3 4 5 6 7 8 9 10 11 12 13 14 15 16 17 18 19 20 21
689
FTUS43 KLMK 301531 AAA
TAFLEX
TAF AMD
KLEX 301531Z 3016/0112 10008KT 5SM -SHRA BR BKN060
     FM301900 16012G22KT P6SM -SHRA VCTS BKN040CB
      TEMPO 3022/0102 4SM -TSRA BKN020 OVC040CB
     FM010600 19008KT P6SM BKN025=

USA.gov is the U.S. government's official web portal to all federal, state and local government web resources and services.